sensor_id;sensor_type;location;lat;lon;timestamp;temperature;humidity
55369;DHT22;41247;49.736;8.752;2022-10-17T00:01:08;17.50;99.90
55369;DHT22;41247;49.736;8.752;2022-10-17T00:04:49;17.50;99.90
55369;DHT22;41247;49.736;8.752;2022-10-17T00:08:29;17.50;99.90
55369;DHT22;41247;49.736;8.752;2022-10-17T00:12:10;17.60;99.90
55369;DHT22;41247;49.736;8.752;2022-10-17T00:15:50;17.50;99.90
55369;DHT22;41247;49.736;8.752;2022-10-17T00:19:31;17.40;99.90
55369;DHT22;41247;49.736;8.752;2022-10-17T00:23:12;17.50;99.90
55369;DHT22;41247;49.736;8.752;2022-10-17T00:26:52;17.50;99.90
55369;DHT22;41247;49.736;8.752;2022-10-17T00:30:33;17.50;99.90
55369;DHT22;41247;49.736;8.752;2022-10-17T00:34:13;17.50;99.90
55369;DHT22;41247;49.736;8.752;2022-10-17T00:37:55;17.50;99.90
55369;DHT22;41247;49.736;8.752;2022-10-17T00:41:36;17.60;99.90
55369;DHT22;41247;49.736;8.752;2022-10-17T00:45:28;17.50;99.90
55369;DHT22;41247;49.736;8.752;2022-10-17T00:49:10;17.50;99.90
55369;DHT22;41247;49.736;8.752;2022-10-17T00:52:52;17.60;99.90
55369;DHT22;41247;49.736;8.752;2022-10-17T00:56:35;17.60;99.90
55369;DHT22;41247;49.736;8.752;2022-10-17T01:00:16;17.50;99.90
55369;DHT22;41247;49.736;8.752;2022-10-17T01:03:57;17.60;99.90
55369;DHT22;41247;49.736;8.752;2022-10-17T01:07:39;17.60;99.90
55369;DHT22;41247;49.736;8.752;2022-10-17T01:11:48;17.70;99.90
55369;DHT22;41247;49.736;8.752;2022-10-17T01:23:59;17.70;99.90
55369;DHT22;41247;49.736;8.752;2022-10-17T01:36:02;17.70;99.90
55369;DHT22;41247;49.736;8.752;2022-10-17T01:39:52;17.70;99.90
55369;DHT22;41247;49.736;8.752;2022-10-17T01:43:54;17.80;99.90
55369;DHT22;41247;49.736;8.752;2022-10-17T01:47:40;17.90;99.90
55369;DHT22;41247;49.736;8.752;2022-10-17T01:51:26;18.00;99.90
55369;DHT22;41247;49.736;8.752;2022-10-17T01:55:13;17.90;99.90
55369;DHT22;41247;49.736;8.752;2022-10-17T01:59:03;17.90;99.90
55369;DHT22;41247;49.736;8.752;2022-10-17T02:03:00;17.90;99.90
55369;DHT22;41247;49.736;8.752;2022-10-17T02:06:43;17.80;99.90
55369;DHT22;41247;49.736;8.752;2022-10-17T02:18:52;18.00;99.90
55369;DHT22;41247;49.736;8.752;2022-10-17T02:23:20;18.10;99.90
55369;DHT22;41247;49.736;8.752;2022-10-17T02:27:11;18.20;99.90
55369;DHT22;41247;49.736;8.752;2022-10-17T02:31:06;18.20;99.90
55369;DHT22;41247;49.736;8.752;2022-10-17T02:34:57;18.30;99.90
55369;DHT22;41247;49.736;8.752;2022-10-17T02:38:41;18.40;99.90
55369;DHT22;41247;49.736;8.752;2022-10-17T02:42:24;18.40;99.90
55369;DHT22;41247;49.736;8.752;2022-10-17T02:46:05;18.40;99.90
55369;DHT22;41247;49.736;8.752;2022-10-17T02:49:51;18.40;99.90
55369;DHT22;41247;49.736;8.752;2022-10-17T02:57:38;18.60;99.90
55369;DHT22;41247;49.736;8.752;2022-10-17T03:01:21;18.60;99.90
55369;DHT22;41247;49.736;8.752;2022-10-17T03:05:01;18.50;99.90
55369;DHT22;41247;49.736;8.752;2022-10-17T03:08:42;18.40;99.90
55369;DHT22;41247;49.736;8.752;2022-10-17T03:12:22;18.40;99.90
55369;DHT22;41247;49.736;8.752;2022-10-17T03:16:03;18.40;99.90
55369;DHT22;41247;49.736;8.752;2022-10-17T03:19:44;18.30;99.90
55369;DHT22;41247;49.736;8.752;2022-10-17T03:23:24;18.30;99.90
55369;DHT22;41247;49.736;8.752;2022-10-17T03:27:05;18.30;99.90
55369;DHT22;41247;49.736;8.752;2022-10-17T03:30:45;18.20;99.90
55369;DHT22;41247;49.736;8.752;2022-10-17T03:34:26;18.20;99.90
55369;DHT22;41247;49.736;8.752;2022-10-17T03:38:06;18.20;99.90
55369;DHT22;41247;49.736;8.752;2022-10-17T03:41:47;18.20;99.90
55369;DHT22;41247;49.736;8.752;2022-10-17T03:45:28;18.10;99.90
55369;DHT22;41247;49.736;8.752;2022-10-17T03:49:09;18.00;99.90
55369;DHT22;41247;49.736;8.752;2022-10-17T03:52:49;18.00;99.90
55369;DHT22;41247;49.736;8.752;2022-10-17T03:56:30;17.70;99.90
55369;DHT22;41247;49.736;8.752;2022-10-17T04:00:11;17.50;99.90
55369;DHT22;41247;49.736;8.752;2022-10-17T04:03:54;17.30;99.90
55369;DHT22;41247;49.736;8.752;2022-10-17T04:07:35;17.10;99.90
55369;DHT22;41247;49.736;8.752;2022-10-17T04:11:18;16.90;99.90
55369;DHT22;41247;49.736;8.752;2022-10-17T04:14:59;16.70;99.90
55369;DHT22;41247;49.736;8.752;2022-10-17T04:18:41;16.50;99.90
55369;DHT22;41247;49.736;8.752;2022-10-17T04:22:21;16.40;99.90
55369;DHT22;41247;49.736;8.752;2022-10-17T04:26:03;16.20;99.90
55369;DHT22;41247;49.736;8.752;2022-10-17T04:29:44;16.20;99.90
55369;DHT22;41247;49.736;8.752;2022-10-17T04:33:25;16.40;99.90
55369;DHT22;41247;49.736;8.752;2022-10-17T04:37:05;16.50;99.90
55369;DHT22;41247;49.736;8.752;2022-10-17T04:40:46;16.90;99.90
55369;DHT22;41247;49.736;8.752;2022-10-17T04:44:27;17.00;99.90
55369;DHT22;41247;49.736;8.752;2022-10-17T04:48:07;17.20;99.90
55369;DHT22;41247;49.736;8.752;2022-10-17T04:51:48;17.20;99.90
55369;DHT22;41247;49.736;8.752;2022-10-17T04:55:28;17.40;99.90
55369;DHT22;41247;49.736;8.752;2022-10-17T04:59:09;17.40;99.90
55369;DHT22;41247;49.736;8.752;2022-10-17T05:02:50;17.20;99.90
55369;DHT22;41247;49.736;8.752;2022-10-17T05:06:30;17.10;99.90
55369;DHT22;41247;49.736;8.752;2022-10-17T05:10:11;16.80;99.90
55369;DHT22;41247;49.736;8.752;2022-10-17T05:13:54;16.60;99.90
55369;DHT22;41247;49.736;8.752;2022-10-17T05:17:35;16.40;99.90
55369;DHT22;41247;49.736;8.752;2022-10-17T05:21:16;16.20;99.90
55369;DHT22;41247;49.736;8.752;2022-10-17T05:24:57;16.00;99.90
55369;DHT22;41247;49.736;8.752;2022-10-17T05:28:38;15.80;99.90
55369;DHT22;41247;49.736;8.752;2022-10-17T05:32:41;15.60;99.90
55369;DHT22;41247;49.736;8.752;2022-10-17T05:36:50;15.50;99.90
55369;DHT22;41247;49.736;8.752;2022-10-17T05:40:51;15.30;99.90
55369;DHT22;41247;49.736;8.752;2022-10-17T05:44:39;15.50;99.90
55369;DHT22;41247;49.736;8.752;2022-10-17T05:48:20;15.80;99.90
55369;DHT22;41247;49.736;8.752;2022-10-17T05:52:08;16.10;99.90
55369;DHT22;41247;49.736;8.752;2022-10-17T05:56:01;16.30;99.90
55369;DHT22;41247;49.736;8.752;2022-10-17T05:59:43;16.40;99.90
55369;DHT22;41247;49.736;8.752;2022-10-17T06:03:30;16.70;99.90
55369;DHT22;41247;49.736;8.752;2022-10-17T06:07:11;16.90;99.90
55369;DHT22;41247;49.736;8.752;2022-10-17T06:10:52;17.00;99.90
55369;DHT22;41247;49.736;8.752;2022-10-17T06:14:33;17.00;99.90
55369;DHT22;41247;49.736;8.752;2022-10-17T06:18:20;16.90;99.90
55369;DHT22;41247;49.736;8.752;2022-10-17T06:22:01;17.00;99.90
55369;DHT22;41247;49.736;8.752;2022-10-17T06:25:41;17.20;99.90
55369;DHT22;41247;49.736;8.752;2022-10-17T06:29:22;17.40;99.90
55369;DHT22;41247;49.736;8.752;2022-10-17T06:33:03;17.50;99.90
55369;DHT22;41247;49.736;8.752;2022-10-17T06:36:44;17.60;99.90
55369;DHT22;41247;49.736;8.752;2022-10-17T06:40:24;17.70;99.90
55369;DHT22;41247;49.736;8.752;2022-10-17T06:44:06;17.60;99.90
55369;DHT22;41247;49.736;8.752;2022-10-17T06:47:47;17.70;99.90
55369;DHT22;41247;49.736;8.752;2022-10-17T06:55:51;17.70;99.90
55369;DHT22;41247;49.736;8.752;2022-10-17T06:59:32;17.60;99.90
55369;DHT22;41247;49.736;8.752;2022-10-17T07:03:12;17.50;99.90
55369;DHT22;41247;49.736;8.752;2022-10-17T07:06:53;17.60;99.90
55369;DHT22;41247;49.736;8.752;2022-10-17T07:10:34;17.70;99.90
55369;DHT22;41247;49.736;8.752;2022-10-17T07:14:14;17.60;99.90
55369;DHT22;41247;49.736;8.752;2022-10-17T07:17:55;17.60;99.90
55369;DHT22;41247;49.736;8.752;2022-10-17T07:21:35;17.70;99.90
55369;DHT22;41247;49.736;8.752;2022-10-17T07:25:16;17.70;99.90
55369;DHT22;41247;49.736;8.752;2022-10-17T07:28:57;17.70;99.90
55369;DHT22;41247;49.736;8.752;2022-10-17T07:32:37;17.70;99.90
55369;DHT22;41247;49.736;8.752;2022-10-17T07:36:18;17.80;99.90
55369;DHT22;41247;49.736;8.752;2022-10-17T07:39:59;17.80;99.90
55369;DHT22;41247;49.736;8.752;2022-10-17T07:43:40;17.80;99.90
55369;DHT22;41247;49.736;8.752;2022-10-17T07:47:20;17.80;99.90
55369;DHT22;41247;49.736;8.752;2022-10-17T07:51:02;17.80;99.90
55369;DHT22;41247;49.736;8.752;2022-10-17T07:54:44;17.90;99.90
55369;DHT22;41247;49.736;8.752;2022-10-17T07:58:24;17.90;99.90
55369;DHT22;41247;49.736;8.752;2022-10-17T08:02:05;17.90;99.90
55369;DHT22;41247;49.736;8.752;2022-10-17T08:05:46;18.00;99.90
55369;DHT22;41247;49.736;8.752;2022-10-17T08:09:26;18.00;99.90
55369;DHT22;41247;49.736;8.752;2022-10-17T08:13:08;18.30;99.90
55369;DHT22;41247;49.736;8.752;2022-10-17T08:16:48;18.50;99.90
55369;DHT22;41247;49.736;8.752;2022-10-17T08:20:29;18.70;99.90
55369;DHT22;41247;49.736;8.752;2022-10-17T08:24:10;18.70;99.90
55369;DHT22;41247;49.736;8.752;2022-10-17T08:27:50;18.70;99.90
55369;DHT22;41247;49.736;8.752;2022-10-17T08:31:31;18.80;99.90
55369;DHT22;41247;49.736;8.752;2022-10-17T08:35:11;19.00;99.90
55369;DHT22;41247;49.736;8.752;2022-10-17T08:38:52;19.10;99.90
55369;DHT22;41247;49.736;8.752;2022-10-17T08:43:25;19.20;99.90
55369;DHT22;41247;49.736;8.752;2022-10-17T08:47:11;19.40;99.90
55369;DHT22;41247;49.736;8.752;2022-10-17T08:51:11;19.50;99.90
55369;DHT22;41247;49.736;8.752;2022-10-17T08:55:07;19.50;99.90
55369;DHT22;41247;49.736;8.752;2022-10-17T08:58:54;19.40;99.90
55369;DHT22;41247;49.736;8.752;2022-10-17T09:06:57;19.40;99.90
55369;DHT22;41247;49.736;8.752;2022-10-17T09:19:11;19.80;99.90
55369;DHT22;41247;49.736;8.752;2022-10-17T09:23:12;19.80;99.90
55369;DHT22;41247;49.736;8.752;2022-10-17T09:26:55;19.90;99.90
55369;DHT22;41247;49.736;8.752;2022-10-17T09:30:41;19.90;99.90
55369;DHT22;41247;49.736;8.752;2022-10-17T09:34:28;19.80;99.90
55369;DHT22;41247;49.736;8.752;2022-10-17T09:38:20;19.90;99.90
55369;DHT22;41247;49.736;8.752;2022-10-17T09:42:02;19.80;99.90
55369;DHT22;41247;49.736;8.752;2022-10-17T09:46:07;19.80;99.90
55369;DHT22;41247;49.736;8.752;2022-10-17T09:49:52;19.90;99.90
55369;DHT22;41247;49.736;8.752;2022-10-17T09:53:37;19.90;99.90
55369;DHT22;41247;49.736;8.752;2022-10-17T09:57:20;19.90;99.90
55369;DHT22;41247;49.736;8.752;2022-10-17T10:01:24;19.90;99.90
55369;DHT22;41247;49.736;8.752;2022-10-17T10:05:15;20.00;99.90
55369;DHT22;41247;49.736;8.752;2022-10-17T10:08:59;20.10;99.90
55369;DHT22;41247;49.736;8.752;2022-10-17T10:12:40;20.10;99.90
55369;DHT22;41247;49.736;8.752;2022-10-17T10:16:31;20.20;99.90
55369;DHT22;41247;49.736;8.752;2022-10-17T10:20:30;20.30;99.90
55369;DHT22;41247;49.736;8.752;2022-10-17T10:24:14;20.50;99.90
55369;DHT22;41247;49.736;8.752;2022-10-17T10:27:55;20.50;99.90
55369;DHT22;41247;49.736;8.752;2022-10-17T10:31:37;20.70;99.90
55369;DHT22;41247;49.736;8.752;2022-10-17T10:35:21;20.80;99.90
55369;DHT22;41247;49.736;8.752;2022-10-17T10:39:30;20.90;99.90
55369;DHT22;41247;49.736;8.752;2022-10-17T10:47:31;21.20;99.90
55369;DHT22;41247;49.736;8.752;2022-10-17T10:51:15;21.30;99.90
55369;DHT22;41247;49.736;8.752;2022-10-17T10:55:05;21.40;99.90
55369;DHT22;41247;49.736;8.752;2022-10-17T10:59:00;21.50;99.90
55369;DHT22;41247;49.736;8.752;2022-10-17T11:02:47;21.60;99.90
55369;DHT22;41247;49.736;8.752;2022-10-17T11:06:36;21.50;99.90
55369;DHT22;41247;49.736;8.752;2022-10-17T11:14:45;21.60;99.90
55369;DHT22;41247;49.736;8.752;2022-10-17T11:22:36;21.80;99.90
55369;DHT22;41247;49.736;8.752;2022-10-17T11:26:27;21.80;99.90
55369;DHT22;41247;49.736;8.752;2022-10-17T11:30:13;21.90;99.90
55369;DHT22;41247;49.736;8.752;2022-10-17T11:34:08;22.00;99.90
55369;DHT22;41247;49.736;8.752;2022-10-17T11:38:02;22.00;99.90
55369;DHT22;41247;49.736;8.752;2022-10-17T11:42:19;22.00;99.90
55369;DHT22;41247;49.736;8.752;2022-10-17T11:46:20;22.00;99.90
55369;DHT22;41247;49.736;8.752;2022-10-17T11:50:19;22.10;99.90
55369;DHT22;41247;49.736;8.752;2022-10-17T11:54:09;22.30;99.90
55369;DHT22;41247;49.736;8.752;2022-10-17T11:58:45;22.30;99.90
55369;DHT22;41247;49.736;8.752;2022-10-17T12:10:51;22.60;99.90
55369;DHT22;41247;49.736;8.752;2022-10-17T12:14:44;22.50;99.90
55369;DHT22;41247;49.736;8.752;2022-10-17T12:18:25;22.50;99.90
55369;DHT22;41247;49.736;8.752;2022-10-17T12:25:58;22.60;99.90
55369;DHT22;41247;49.736;8.752;2022-10-17T12:29:39;22.70;99.90
55369;DHT22;41247;49.736;8.752;2022-10-17T12:33:37;22.70;99.90
55369;DHT22;41247;49.736;8.752;2022-10-17T12:45:58;22.90;99.90
55369;DHT22;41247;49.736;8.752;2022-10-17T13:01:57;23.10;99.90
55369;DHT22;41247;49.736;8.752;2022-10-17T13:05:45;23.10;99.90
55369;DHT22;41247;49.736;8.752;2022-10-17T13:09:30;23.20;99.90
55369;DHT22;41247;49.736;8.752;2022-10-17T13:13:19;23.10;99.90
55369;DHT22;41247;49.736;8.752;2022-10-17T13:17:05;23.00;99.90
55369;DHT22;41247;49.736;8.752;2022-10-17T13:21:14;23.10;99.90
55369;DHT22;41247;49.736;8.752;2022-10-17T13:25:13;23.20;99.90
55369;DHT22;41247;49.736;8.752;2022-10-17T13:29:05;23.10;99.90
55369;DHT22;41247;49.736;8.752;2022-10-17T13:32:50;23.20;99.90
55369;DHT22;41247;49.736;8.752;2022-10-17T13:36:33;23.20;99.90
55369;DHT22;41247;49.736;8.752;2022-10-17T13:40:15;23.20;99.90
55369;DHT22;41247;49.736;8.752;2022-10-17T13:43:57;23.10;99.90
55369;DHT22;41247;49.736;8.752;2022-10-17T13:47:38;23.10;99.90
55369;DHT22;41247;49.736;8.752;2022-10-17T13:51:19;23.00;99.90
55369;DHT22;41247;49.736;8.752;2022-10-17T13:55:14;23.00;99.90
55369;DHT22;41247;49.736;8.752;2022-10-17T13:58:59;23.00;99.90
55369;DHT22;41247;49.736;8.752;2022-10-17T14:02:41;23.00;99.90
55369;DHT22;41247;49.736;8.752;2022-10-17T14:06:26;23.00;99.90
55369;DHT22;41247;49.736;8.752;2022-10-17T14:10:30;23.00;99.90
55369;DHT22;41247;49.736;8.752;2022-10-17T14:14:23;23.10;99.90
55369;DHT22;41247;49.736;8.752;2022-10-17T14:18:06;23.10;99.90
55369;DHT22;41247;49.736;8.752;2022-10-17T14:21:48;23.20;99.90
55369;DHT22;41247;49.736;8.752;2022-10-17T14:25:38;23.30;99.90
55369;DHT22;41247;49.736;8.752;2022-10-17T14:33:10;23.80;99.90
55369;DHT22;41247;49.736;8.752;2022-10-17T14:36:54;25.00;99.90
55369;DHT22;41247;49.736;8.752;2022-10-17T14:40:36;27.00;99.90
55369;DHT22;41247;49.736;8.752;2022-10-17T14:44:23;28.40;99.90
55369;DHT22;41247;49.736;8.752;2022-10-17T14:48:16;29.30;99.90
55369;DHT22;41247;49.736;8.752;2022-10-17T14:55:57;29.10;99.90
55369;DHT22;41247;49.736;8.752;2022-10-17T14:59:39;27.80;99.90
55369;DHT22;41247;49.736;8.752;2022-10-17T15:03:20;26.20;99.90
55369;DHT22;41247;49.736;8.752;2022-10-17T15:07:00;25.10;99.90
55369;DHT22;41247;49.736;8.752;2022-10-17T15:10:42;24.10;99.90
55369;DHT22;41247;49.736;8.752;2022-10-17T15:14:23;23.30;99.90
55369;DHT22;41247;49.736;8.752;2022-10-17T15:18:05;22.70;99.90
55369;DHT22;41247;49.736;8.752;2022-10-17T15:21:46;22.20;99.90
55369;DHT22;41247;49.736;8.752;2022-10-17T15:25:28;21.80;99.90
55369;DHT22;41247;49.736;8.752;2022-10-17T15:29:13;21.50;99.90
55369;DHT22;41247;49.736;8.752;2022-10-17T15:32:55;21.20;99.90
55369;DHT22;41247;49.736;8.752;2022-10-17T15:36:40;21.00;99.90
55369;DHT22;41247;49.736;8.752;2022-10-17T15:40:24;20.90;99.90
55369;DHT22;41247;49.736;8.752;2022-10-17T15:44:07;20.80;99.90
55369;DHT22;41247;49.736;8.752;2022-10-17T15:48:06;20.70;99.90
55369;DHT22;41247;49.736;8.752;2022-10-17T15:52:07;20.60;99.90
55369;DHT22;41247;49.736;8.752;2022-10-17T15:55:48;20.50;99.90
55369;DHT22;41247;49.736;8.752;2022-10-17T15:59:32;20.40;99.90
55369;DHT22;41247;49.736;8.752;2022-10-17T16:03:13;20.30;99.90
55369;DHT22;41247;49.736;8.752;2022-10-17T16:06:54;20.20;99.90
55369;DHT22;41247;49.736;8.752;2022-10-17T16:10:36;20.20;99.90
55369;DHT22;41247;49.736;8.752;2022-10-17T16:14:18;20.10;99.90
55369;DHT22;41247;49.736;8.752;2022-10-17T16:17:59;20.00;99.90
55369;DHT22;41247;49.736;8.752;2022-10-17T16:21:40;19.80;99.90
55369;DHT22;41247;49.736;8.752;2022-10-17T16:25:23;19.70;99.90
55369;DHT22;41247;49.736;8.752;2022-10-17T16:29:06;19.60;99.90
55369;DHT22;41247;49.736;8.752;2022-10-17T16:32:46;19.40;99.90
55369;DHT22;41247;49.736;8.752;2022-10-17T16:36:27;19.30;99.90
55369;DHT22;41247;49.736;8.752;2022-10-17T16:40:08;19.10;99.90
55369;DHT22;41247;49.736;8.752;2022-10-17T16:43:51;19.00;99.90
55369;DHT22;41247;49.736;8.752;2022-10-17T16:47:32;18.90;99.90
55369;DHT22;41247;49.736;8.752;2022-10-17T16:51:14;18.70;99.90
55369;DHT22;41247;49.736;8.752;2022-10-17T16:54:55;18.60;99.90
55369;DHT22;41247;49.736;8.752;2022-10-17T16:58:36;18.60;99.90
55369;DHT22;41247;49.736;8.752;2022-10-17T17:02:17;18.50;99.90
55369;DHT22;41247;49.736;8.752;2022-10-17T17:05:58;18.50;99.90
55369;DHT22;41247;49.736;8.752;2022-10-17T17:09:39;18.50;99.90
55369;DHT22;41247;49.736;8.752;2022-10-17T17:13:20;18.50;99.90
55369;DHT22;41247;49.736;8.752;2022-10-17T17:17:00;18.50;99.90
55369;DHT22;41247;49.736;8.752;2022-10-17T17:20:41;18.40;99.90
55369;DHT22;41247;49.736;8.752;2022-10-17T17:24:21;18.30;99.90
55369;DHT22;41247;49.736;8.752;2022-10-17T17:28:02;18.10;99.90
55369;DHT22;41247;49.736;8.752;2022-10-17T17:31:43;18.00;99.90
55369;DHT22;41247;49.736;8.752;2022-10-17T17:35:24;17.90;99.90
55369;DHT22;41247;49.736;8.752;2022-10-17T17:39:09;17.80;99.90
55369;DHT22;41247;49.736;8.752;2022-10-17T17:42:51;17.70;99.90
55369;DHT22;41247;49.736;8.752;2022-10-17T17:46:31;17.70;99.90
55369;DHT22;41247;49.736;8.752;2022-10-17T17:50:12;17.60;99.90
55369;DHT22;41247;49.736;8.752;2022-10-17T17:53:53;17.60;99.90
55369;DHT22;41247;49.736;8.752;2022-10-17T17:57:34;17.50;99.90
55369;DHT22;41247;49.736;8.752;2022-10-17T18:01:17;17.40;99.90
55369;DHT22;41247;49.736;8.752;2022-10-17T18:04:59;17.30;99.90
55369;DHT22;41247;49.736;8.752;2022-10-17T18:08:43;17.20;99.90
55369;DHT22;41247;49.736;8.752;2022-10-17T18:12:24;17.00;99.90
55369;DHT22;41247;49.736;8.752;2022-10-17T18:16:06;17.00;99.90
55369;DHT22;41247;49.736;8.752;2022-10-17T18:19:47;16.90;99.90
55369;DHT22;41247;49.736;8.752;2022-10-17T18:23:28;16.80;99.90
55369;DHT22;41247;49.736;8.752;2022-10-17T18:27:09;16.80;99.90
55369;DHT22;41247;49.736;8.752;2022-10-17T18:30:49;16.80;99.90
55369;DHT22;41247;49.736;8.752;2022-10-17T18:34:30;16.90;99.90
55369;DHT22;41247;49.736;8.752;2022-10-17T18:38:11;16.90;99.90
55369;DHT22;41247;49.736;8.752;2022-10-17T18:41:51;16.90;99.90
55369;DHT22;41247;49.736;8.752;2022-10-17T18:45:32;16.80;99.90
55369;DHT22;41247;49.736;8.752;2022-10-17T18:49:16;16.80;99.90
55369;DHT22;41247;49.736;8.752;2022-10-17T18:52:57;16.80;99.90
55369;DHT22;41247;49.736;8.752;2022-10-17T18:56:38;16.90;99.90
55369;DHT22;41247;49.736;8.752;2022-10-17T19:00:20;16.80;99.90
55369;DHT22;41247;49.736;8.752;2022-10-17T19:04:01;16.80;99.90
55369;DHT22;41247;49.736;8.752;2022-10-17T19:07:41;16.70;99.90
55369;DHT22;41247;49.736;8.752;2022-10-17T19:11:24;16.70;99.90
55369;DHT22;41247;49.736;8.752;2022-10-17T19:15:06;16.70;99.90
55369;DHT22;41247;49.736;8.752;2022-10-17T19:18:51;16.60;99.90
55369;DHT22;41247;49.736;8.752;2022-10-17T19:22:34;16.60;99.90
55369;DHT22;41247;49.736;8.752;2022-10-17T19:26:15;16.50;99.90
55369;DHT22;41247;49.736;8.752;2022-10-17T19:29:56;16.40;99.90
55369;DHT22;41247;49.736;8.752;2022-10-17T19:33:36;16.40;99.90
55369;DHT22;41247;49.736;8.752;2022-10-17T19:37:19;16.40;99.90
55369;DHT22;41247;49.736;8.752;2022-10-17T19:41:03;16.30;99.90
55369;DHT22;41247;49.736;8.752;2022-10-17T19:44:45;16.20;99.90
55369;DHT22;41247;49.736;8.752;2022-10-17T19:48:26;16.10;99.90
55369;DHT22;41247;49.736;8.752;2022-10-17T19:52:07;16.00;99.90
55369;DHT22;41247;49.736;8.752;2022-10-17T19:55:47;16.00;99.90
55369;DHT22;41247;49.736;8.752;2022-10-17T19:59:28;15.90;99.90
55369;DHT22;41247;49.736;8.752;2022-10-17T20:03:11;15.90;99.90
55369;DHT22;41247;49.736;8.752;2022-10-17T20:06:51;15.80;99.90
55369;DHT22;41247;49.736;8.752;2022-10-17T20:10:32;15.80;99.90
55369;DHT22;41247;49.736;8.752;2022-10-17T20:14:14;15.80;99.90
55369;DHT22;41247;49.736;8.752;2022-10-17T20:17:55;15.80;99.90
55369;DHT22;41247;49.736;8.752;2022-10-17T20:21:36;15.80;99.90
55369;DHT22;41247;49.736;8.752;2022-10-17T20:25:18;15.80;99.90
55369;DHT22;41247;49.736;8.752;2022-10-17T20:29:03;15.80;99.90
55369;DHT22;41247;49.736;8.752;2022-10-17T20:32:44;15.80;99.90
55369;DHT22;41247;49.736;8.752;2022-10-17T20:36:25;15.80;99.90
55369;DHT22;41247;49.736;8.752;2022-10-17T20:40:06;15.80;99.90
55369;DHT22;41247;49.736;8.752;2022-10-17T20:43:50;15.80;99.90
55369;DHT22;41247;49.736;8.752;2022-10-17T20:47:31;15.80;99.90
55369;DHT22;41247;49.736;8.752;2022-10-17T20:51:12;15.80;99.90
55369;DHT22;41247;49.736;8.752;2022-10-17T20:54:52;15.80;99.90
55369;DHT22;41247;49.736;8.752;2022-10-17T20:58:33;15.80;99.90
55369;DHT22;41247;49.736;8.752;2022-10-17T21:02:14;15.80;99.90
55369;DHT22;41247;49.736;8.752;2022-10-17T21:05:55;15.80;99.90
55369;DHT22;41247;49.736;8.752;2022-10-17T21:09:35;15.80;99.90
55369;DHT22;41247;49.736;8.752;2022-10-17T21:13:16;15.80;99.90
55369;DHT22;41247;49.736;8.752;2022-10-17T21:16:57;15.80;99.90
55369;DHT22;41247;49.736;8.752;2022-10-17T21:20:47;15.80;99.90
55369;DHT22;41247;49.736;8.752;2022-10-17T21:24:28;15.80;99.90
55369;DHT22;41247;49.736;8.752;2022-10-17T21:28:09;15.80;99.90
55369;DHT22;41247;49.736;8.752;2022-10-17T21:31:50;15.80;99.90
55369;DHT22;41247;49.736;8.752;2022-10-17T21:35:31;15.80;99.90
55369;DHT22;41247;49.736;8.752;2022-10-17T21:39:13;15.80;99.90
55369;DHT22;41247;49.736;8.752;2022-10-17T21:42:54;15.80;99.90
55369;DHT22;41247;49.736;8.752;2022-10-17T21:46:35;15.80;99.90
55369;DHT22;41247;49.736;8.752;2022-10-17T21:50:23;15.70;99.90
55369;DHT22;41247;49.736;8.752;2022-10-17T21:54:04;15.70;99.90
55369;DHT22;41247;49.736;8.752;2022-10-17T21:57:44;15.70;99.90
55369;DHT22;41247;49.736;8.752;2022-10-17T22:01:27;15.60;99.90
55369;DHT22;41247;49.736;8.752;2022-10-17T22:05:12;15.50;99.90
55369;DHT22;41247;49.736;8.752;2022-10-17T22:08:52;15.50;99.90
55369;DHT22;41247;49.736;8.752;2022-10-17T22:12:33;15.40;99.90
55369;DHT22;41247;49.736;8.752;2022-10-17T22:16:15;15.40;99.90
55369;DHT22;41247;49.736;8.752;2022-10-17T22:19:55;15.30;99.90
55369;DHT22;41247;49.736;8.752;2022-10-17T22:23:36;15.20;99.90
55369;DHT22;41247;49.736;8.752;2022-10-17T22:27:16;15.20;99.90
55369;DHT22;41247;49.736;8.752;2022-10-17T22:30:57;15.20;99.90
55369;DHT22;41247;49.736;8.752;2022-10-17T22:34:38;15.10;99.90
55369;DHT22;41247;49.736;8.752;2022-10-17T22:38:18;15.00;99.90
55369;DHT22;41247;49.736;8.752;2022-10-17T22:41:59;15.00;99.90
55369;DHT22;41247;49.736;8.752;2022-10-17T22:45:40;14.90;99.90
55369;DHT22;41247;49.736;8.752;2022-10-17T22:49:20;14.90;99.90
55369;DHT22;41247;49.736;8.752;2022-10-17T22:53:01;14.90;99.90
55369;DHT22;41247;49.736;8.752;2022-10-17T22:56:41;14.90;99.90
55369;DHT22;41247;49.736;8.752;2022-10-17T23:00:22;14.90;99.90
55369;DHT22;41247;49.736;8.752;2022-10-17T23:04:02;14.90;99.90
55369;DHT22;41247;49.736;8.752;2022-10-17T23:07:43;15.00;99.90
55369;DHT22;41247;49.736;8.752;2022-10-17T23:11:24;14.90;99.90
55369;DHT22;41247;49.736;8.752;2022-10-17T23:15:05;14.90;99.90
55369;DHT22;41247;49.736;8.752;2022-10-17T23:18:45;14.80;99.90
55369;DHT22;41247;49.736;8.752;2022-10-17T23:22:28;14.80;99.90
55369;DHT22;41247;49.736;8.752;2022-10-17T23:26:11;14.90;99.90
55369;DHT22;41247;49.736;8.752;2022-10-17T23:29:52;14.90;99.90
55369;DHT22;41247;49.736;8.752;2022-10-17T23:33:33;14.80;99.90
55369;DHT22;41247;49.736;8.752;2022-10-17T23:37:14;14.80;99.90
55369;DHT22;41247;49.736;8.752;2022-10-17T23:40:54;14.80;99.90
55369;DHT22;41247;49.736;8.752;2022-10-17T23:44:35;14.80;99.90
55369;DHT22;41247;49.736;8.752;2022-10-17T23:48:15;14.90;99.90
55369;DHT22;41247;49.736;8.752;2022-10-17T23:51:56;14.90;99.90
55369;DHT22;41247;49.736;8.752;2022-10-17T23:55:37;14.90;99.90
55369;DHT22;41247;49.736;8.752;2022-10-17T23:59:17;14.90;99.90
